sensor_id;sensor_type;location;lat;lon;timestamp;pressure;altitude;pressure_sealevel;temperature;humidity
44531;BME280;30240;47.418;0.700;2023-04-23T00:01:20;99753.94287109375;;;10.72;86.94
44531;BME280;30240;47.418;0.700;2023-04-23T00:03:44;99748.15673828125;;;10.69;87.08
44531;BME280;30240;47.418;0.700;2023-04-23T00:06:09;99742.90771484375;;;10.68;87.18
44531;BME280;30240;47.418;0.700;2023-04-23T00:08:34;99742.90771484375;;;10.68;87.18
44531;BME280;30240;47.418;0.700;2023-04-23T00:10:59;99736.65771484375;;;10.63;87.17
44531;BME280;30240;47.418;0.700;2023-04-23T00:13:24;99726.72119140625;;;10.58;87.33
44531;BME280;30240;47.418;0.700;2023-04-23T00:15:49;99729.40673828125;;;10.57;87.41
44531;BME280;30240;47.418;0.700;2023-04-23T00:18:13;99730.13916015625;;;10.46;87.52
44531;BME280;30240;47.418;0.700;2023-04-23T00:20:38;99730.13916015625;;;10.46;87.52
44531;BME280;30240;47.418;0.700;2023-04-23T00:23:03;99723.23608398438;;;10.46;87.63
44531;BME280;30240;47.418;0.700;2023-04-23T00:25:28;99713.4521484375;;;10.51;87.65
44531;BME280;30240;47.418;0.700;2023-04-23T00:27:53;99713.6474609375;;;10.47;87.76
44531;BME280;30240;47.418;0.700;2023-04-23T00:30:18;99713.29956054688;;;10.43;87.9
44531;BME280;30240;47.418;0.700;2023-04-23T00:32:43;99713.29956054688;;;10.43;87.9
44531;BME280;30240;47.418;0.700;2023-04-23T00:35:09;99710.9375;;;10.47;88.08
44531;BME280;30240;47.418;0.700;2023-04-23T00:37:34;99704.52880859375;;;10.49;88.25
44531;BME280;30240;47.418;0.700;2023-04-23T00:39:59;99698.57177734375;;;10.5;88.2
44531;BME280;30240;47.418;0.700;2023-04-23T00:42:24;99695.00122070312;;;10.46;88.19
44531;BME280;30240;47.418;0.700;2023-04-23T00:44:49;99695.00122070312;;;10.46;88.19
44531;BME280;30240;47.418;0.700;2023-04-23T00:47:13;99685.2783203125;;;10.43;88.23
44531;BME280;30240;47.418;0.700;2023-04-23T00:49:40;99679.18701171875;;;10.41;88.25
44531;BME280;30240;47.418;0.700;2023-04-23T00:52:04;99676.59301757812;;;10.46;88.36
44531;BME280;30240;47.418;0.700;2023-04-23T00:54:29;99670.263671875;;;10.43;88.4
44531;BME280;30240;47.418;0.700;2023-04-23T00:56:54;99670.263671875;;;10.43;88.4
44531;BME280;30240;47.418;0.700;2023-04-23T00:59:19;99662.03002929688;;;10.41;88.53
44531;BME280;30240;47.418;0.700;2023-04-23T01:01:43;99663.56201171875;;;10.36;88.75
44531;BME280;30240;47.418;0.700;2023-04-23T01:04:08;99654.9560546875;;;10.37;88.77
44531;BME280;30240;47.418;0.700;2023-04-23T01:06:34;99649.7802734375;;;10.36;88.85
44531;BME280;30240;47.418;0.700;2023-04-23T01:08:59;99650.18920898438;;;10.36;88.88
44531;BME280;30240;47.418;0.700;2023-04-23T01:11:24;99650.18920898438;;;10.36;88.88
44531;BME280;30240;47.418;0.700;2023-04-23T01:13:49;99651.76391601562;;;10.32;88.95
44531;BME280;30240;47.418;0.700;2023-04-23T01:16:13;99654.4189453125;;;10.29;89.05
44531;BME280;30240;47.418;0.700;2023-04-23T01:18:39;99658.59375;;;10.23;89.09
44531;BME280;30240;47.418;0.700;2023-04-23T01:21:04;99658.23364257812;;;10.15;89.25
44531;BME280;30240;47.418;0.700;2023-04-23T01:23:29;99658.23364257812;;;10.15;89.25
44531;BME280;30240;47.418;0.700;2023-04-23T01:25:53;99656.40869140625;;;10.12;89.31
44531;BME280;30240;47.418;0.700;2023-04-23T01:28:19;99644.482421875;;;10.13;89.4
44531;BME280;30240;47.418;0.700;2023-04-23T01:30:44;99628.7841796875;;;10.12;89.55
44531;BME280;30240;47.418;0.700;2023-04-23T01:33:09;99627.82592773438;;;10.1;89.5
44531;BME280;30240;47.418;0.700;2023-04-23T01:35:34;99627.82592773438;;;10.1;89.5
44531;BME280;30240;47.418;0.700;2023-04-23T01:38:00;99621.00830078125;;;10.13;89.51
44531;BME280;30240;47.418;0.700;2023-04-23T01:40:23;99618.359375;;;10.1;89.55
44531;BME280;30240;47.418;0.700;2023-04-23T01:42:48;99615.09399414062;;;10.05;89.66
44531;BME280;30240;47.418;0.700;2023-04-23T01:45:13;99610.2783203125;;;9.99;89.65
44531;BME280;30240;47.418;0.700;2023-04-23T01:47:39;99610.2783203125;;;9.99;89.65
44531;BME280;30240;47.418;0.700;2023-04-23T01:50:04;99601.611328125;;;9.98;89.77
44531;BME280;30240;47.418;0.700;2023-04-23T01:52:28;99607.373046875;;;9.97;89.75
44531;BME280;30240;47.418;0.700;2023-04-23T01:54:54;99606.689453125;;;9.97;89.74
44531;BME280;30240;47.418;0.700;2023-04-23T01:57:18;99604.21752929688;;;9.97;89.82
44531;BME280;30240;47.418;0.700;2023-04-23T01:59:43;99604.21752929688;;;9.97;89.82
44531;BME280;30240;47.418;0.700;2023-04-23T02:02:08;99595.39184570312;;;9.98;89.74
44531;BME280;30240;47.418;0.700;2023-04-23T02:04:33;99598.388671875;;;9.97;89.69
44531;BME280;30240;47.418;0.700;2023-04-23T02:06:59;99595.4833984375;;;9.98;89.65
44531;BME280;30240;47.418;0.700;2023-04-23T02:09:24;99598.51684570312;;;10.03;89.5
44531;BME280;30240;47.418;0.700;2023-04-23T02:11:48;99598.51684570312;;;10.03;89.5
44531;BME280;30240;47.418;0.700;2023-04-23T02:14:13;99603.35693359375;;;9.99;89.53
44531;BME280;30240;47.418;0.700;2023-04-23T02:16:39;99601.0009765625;;;10.03;89.34
44531;BME280;30240;47.418;0.700;2023-04-23T02:19:04;99594.3603515625;;;10.08;89.21
44531;BME280;30240;47.418;0.700;2023-04-23T02:21:29;99583.8623046875;;;9.99;89.11
44531;BME280;30240;47.418;0.700;2023-04-23T02:23:54;99583.8623046875;;;9.99;89.11
44531;BME280;30240;47.418;0.700;2023-04-23T02:26:18;99577.74047851562;;;9.87;89.26
44531;BME280;30240;47.418;0.700;2023-04-23T02:28:44;99582.1533203125;;;9.95;89.3
44531;BME280;30240;47.418;0.700;2023-04-23T02:31:08;99578.173828125;;;9.85;89.31
44531;BME280;30240;47.418;0.700;2023-04-23T02:33:33;99576.81884765625;;;9.82;89.45
44531;BME280;30240;47.418;0.700;2023-04-23T02:35:59;99576.81884765625;;;9.82;89.45
44531;BME280;30240;47.418;0.700;2023-04-23T02:38:23;99591.56494140625;;;9.88;89.37
44531;BME280;30240;47.418;0.700;2023-04-23T02:40:48;99587.53051757812;;;9.84;89.54
44531;BME280;30240;47.418;0.700;2023-04-23T02:43:13;99578.11889648438;;;9.91;89.47
44531;BME280;30240;47.418;0.700;2023-04-23T02:45:38;99579.26635742188;;;9.91;89.4
44531;BME280;30240;47.418;0.700;2023-04-23T02:48:04;99573.6083984375;;;9.94;89.18
44531;BME280;30240;47.418;0.700;2023-04-23T02:50:29;99573.6083984375;;;9.94;89.18
44531;BME280;30240;47.418;0.700;2023-04-23T02:52:53;99566.2841796875;;;9.84;89.21
44531;BME280;30240;47.418;0.700;2023-04-23T02:55:18;99554.04663085938;;;9.84;89.12
44531;BME280;30240;47.418;0.700;2023-04-23T02:57:43;99547.5341796875;;;9.84;88.94
44531;BME280;30240;47.418;0.700;2023-04-23T03:00:09;99545.1904296875;;;9.82;88.98
44531;BME280;30240;47.418;0.700;2023-04-23T03:02:34;99545.1904296875;;;9.82;88.98
44531;BME280;30240;47.418;0.700;2023-04-23T03:04:58;99535.888671875;;;9.87;88.77
44531;BME280;30240;47.418;0.700;2023-04-23T03:07:23;99529.63256835938;;;9.85;88.87
44531;BME280;30240;47.418;0.700;2023-04-23T03:09:48;99519.56176757812;;;9.82;88.79
44531;BME280;30240;47.418;0.700;2023-04-23T03:12:16;99517.95043945312;;;9.78;88.74
44531;BME280;30240;47.418;0.700;2023-04-23T03:14:41;99517.95043945312;;;9.78;88.74
44531;BME280;30240;47.418;0.700;2023-04-23T03:17:03;99515.71655273438;;;9.82;88.88
44531;BME280;30240;47.418;0.700;2023-04-23T03:19:28;99509.35668945312;;;9.81;88.81
44531;BME280;30240;47.418;0.700;2023-04-23T03:21:53;99501.93481445312;;;9.74;88.71
44531;BME280;30240;47.418;0.700;2023-04-23T03:24:18;99494.52514648438;;;9.75;88.69
44531;BME280;30240;47.418;0.700;2023-04-23T03:26:43;99494.52514648438;;;9.75;88.69
44531;BME280;30240;47.418;0.700;2023-04-23T03:29:08;99491.15600585938;;;9.77;88.57
44531;BME280;30240;47.418;0.700;2023-04-23T03:31:33;99482.763671875;;;9.75;88.48
44531;BME280;30240;47.418;0.700;2023-04-23T03:33:59;99474.9755859375;;;9.82;88.14
44531;BME280;30240;47.418;0.700;2023-04-23T03:36:24;99482.04956054688;;;9.81;87.87
44531;BME280;30240;47.418;0.700;2023-04-23T03:38:48;99482.04956054688;;;9.81;87.87
44531;BME280;30240;47.418;0.700;2023-04-23T03:41:13;99468.9697265625;;;9.81;87.62
44531;BME280;30240;47.418;0.700;2023-04-23T03:43:38;99466.57104492188;;;9.9;87.43
44531;BME280;30240;47.418;0.700;2023-04-23T03:46:03;99455.97534179688;;;9.9;87.34
44531;BME280;30240;47.418;0.700;2023-04-23T03:48:28;99463.56201171875;;;9.91;87.12
44531;BME280;30240;47.418;0.700;2023-04-23T03:50:53;99463.56201171875;;;9.91;87.12
44531;BME280;30240;47.418;0.700;2023-04-23T03:53:18;99459.46655273438;;;9.95;87.14
44531;BME280;30240;47.418;0.700;2023-04-23T03:55:43;99465.95458984375;;;9.99;87.16
44531;BME280;30240;47.418;0.700;2023-04-23T03:58:09;99466.04614257812;;;9.98;87.16
44531;BME280;30240;47.418;0.700;2023-04-23T04:00:34;99473.54736328125;;;10.1;87.12
44531;BME280;30240;47.418;0.700;2023-04-23T04:02:58;99473.54736328125;;;10.1;87.12
44531;BME280;30240;47.418;0.700;2023-04-23T04:05:24;99462.255859375;;;10.12;86.81
44531;BME280;30240;47.418;0.700;2023-04-23T04:07:49;99466.26586914062;;;10.13;86.82
44531;BME280;30240;47.418;0.700;2023-04-23T04:10:14;99468.22509765625;;;10.08;87.01
44531;BME280;30240;47.418;0.700;2023-04-23T04:12:38;99460.3759765625;;;10.02;87.22
44531;BME280;30240;47.418;0.700;2023-04-23T04:15:04;99460.56518554688;;;10.01;87.52
44531;BME280;30240;47.418;0.700;2023-04-23T04:17:28;99460.56518554688;;;10.01;87.52
44531;BME280;30240;47.418;0.700;2023-04-23T04:19:53;99451.4404296875;;;9.97;87.84
44531;BME280;30240;47.418;0.700;2023-04-23T04:22:19;99454.4189453125;;;9.9;88.34
44531;BME280;30240;47.418;0.700;2023-04-23T04:24:44;99443.29833984375;;;9.88;88.79
44531;BME280;30240;47.418;0.700;2023-04-23T04:27:16;99430.38940429688;;;9.9;89.19
44531;BME280;30240;47.418;0.700;2023-04-23T04:29:34;99430.38940429688;;;9.9;89.19
44531;BME280;30240;47.418;0.700;2023-04-23T04:31:59;99436.0595703125;;;9.92;89.6
44531;BME280;30240;47.418;0.700;2023-04-23T04:34:24;99430.18798828125;;;9.92;89.81
44531;BME280;30240;47.418;0.700;2023-04-23T04:36:49;99425.97045898438;;;9.94;90.0
44531;BME280;30240;47.418;0.700;2023-04-23T04:39:14;99425.16479492188;;;9.92;90.22
44531;BME280;30240;47.418;0.700;2023-04-23T04:41:39;99425.16479492188;;;9.92;90.22
44531;BME280;30240;47.418;0.700;2023-04-23T04:44:03;99435.4248046875;;;9.98;90.46
44531;BME280;30240;47.418;0.700;2023-04-23T04:46:29;99432.61108398438;;;9.98;90.66
44531;BME280;30240;47.418;0.700;2023-04-23T04:48:54;99438.00048828125;;;9.98;90.82
44531;BME280;30240;47.418;0.700;2023-04-23T04:51:19;99428.94287109375;;;10.06;90.91
44531;BME280;30240;47.418;0.700;2023-04-23T04:53:44;99428.94287109375;;;10.06;90.91
44531;BME280;30240;47.418;0.700;2023-04-23T04:56:09;99429.62646484375;;;10.06;91.17
44531;BME280;30240;47.418;0.700;2023-04-23T04:58:34;99423.79760742188;;;10.09;91.37
44531;BME280;30240;47.418;0.700;2023-04-23T05:00:59;99425.47607421875;;;10.12;91.44
44531;BME280;30240;47.418;0.700;2023-04-23T05:03:24;99422.62573242188;;;10.13;91.6
44531;BME280;30240;47.418;0.700;2023-04-23T05:05:49;99422.62573242188;;;10.13;91.6
44531;BME280;30240;47.418;0.700;2023-04-23T05:08:14;99416.2841796875;;;10.15;91.76
44531;BME280;30240;47.418;0.700;2023-04-23T05:10:39;99408.57543945312;;;10.17;91.91
44531;BME280;30240;47.418;0.700;2023-04-23T05:13:04;99408.6669921875;;;10.26;91.94
44531;BME280;30240;47.418;0.700;2023-04-23T05:15:29;99414.59350585938;;;10.2;92.06
44531;BME280;30240;47.418;0.700;2023-04-23T05:17:54;99414.59350585938;;;10.2;92.06
44531;BME280;30240;47.418;0.700;2023-04-23T05:20:19;99409.17358398438;;;10.23;92.16
44531;BME280;30240;47.418;0.700;2023-04-23T05:22:43;99406.25;;;10.29;92.26
44531;BME280;30240;47.418;0.700;2023-04-23T05:25:10;99402.001953125;;;10.3;92.32
44531;BME280;30240;47.418;0.700;2023-04-23T05:27:34;99394.7021484375;;;10.28;92.38
44531;BME280;30240;47.418;0.700;2023-04-23T05:29:59;99394.7021484375;;;10.28;92.38
44531;BME280;30240;47.418;0.700;2023-04-23T05:32:24;99393.07861328125;;;10.33;92.44
44531;BME280;30240;47.418;0.700;2023-04-23T05:34:48;99393.73168945312;;;10.32;92.46
44531;BME280;30240;47.418;0.700;2023-04-23T05:37:14;99383.203125;;;10.32;92.48
44531;BME280;30240;47.418;0.700;2023-04-23T05:39:39;99387.78076171875;;;10.36;92.58
44531;BME280;30240;47.418;0.700;2023-04-23T05:42:04;99387.78076171875;;;10.36;92.58
44531;BME280;30240;47.418;0.700;2023-04-23T05:44:37;99385.07690429688;;;10.4;92.6
44531;BME280;30240;47.418;0.700;2023-04-23T05:46:54;99377.8564453125;;;10.47;92.57
44531;BME280;30240;47.418;0.700;2023-04-23T05:49:19;99378.98559570312;;;10.46;92.53
44531;BME280;30240;47.418;0.700;2023-04-23T05:51:43;99372.0947265625;;;10.46;92.54
44531;BME280;30240;47.418;0.700;2023-04-23T05:54:09;99374.77416992188;;;10.47;92.53
44531;BME280;30240;47.418;0.700;2023-04-23T05:56:33;99374.77416992188;;;10.47;92.53
44531;BME280;30240;47.418;0.700;2023-04-23T05:58:58;99371.50268554688;;;10.49;92.57
44531;BME280;30240;47.418;0.700;2023-04-23T06:01:23;99374.365234375;;;10.63;92.55
44531;BME280;30240;47.418;0.700;2023-04-23T06:03:49;99366.796875;;;10.58;92.5
44531;BME280;30240;47.418;0.700;2023-04-23T06:06:13;99365.68603515625;;;10.6;92.55
44531;BME280;30240;47.418;0.700;2023-04-23T06:08:39;99365.68603515625;;;10.6;92.55
44531;BME280;30240;47.418;0.700;2023-04-23T06:11:04;99364.111328125;;;10.58;92.55
44531;BME280;30240;47.418;0.700;2023-04-23T06:13:29;99356.21337890625;;;10.64;92.54
44531;BME280;30240;47.418;0.700;2023-04-23T06:15:53;99351.611328125;;;10.64;92.49
44531;BME280;30240;47.418;0.700;2023-04-23T06:18:19;99353.4912109375;;;10.57;92.44
44531;BME280;30240;47.418;0.700;2023-04-23T06:20:44;99353.4912109375;;;10.57;92.44
44531;BME280;30240;47.418;0.700;2023-04-23T06:23:09;99332.04956054688;;;10.64;92.4
44531;BME280;30240;47.418;0.700;2023-04-23T06:25:34;99332.00073242188;;;10.75;92.24
44531;BME280;30240;47.418;0.700;2023-04-23T06:27:59;99312.92114257812;;;10.76;92.01
44531;BME280;30240;47.418;0.700;2023-04-23T06:30:23;99287.3779296875;;;10.89;91.82
44531;BME280;30240;47.418;0.700;2023-04-23T06:32:49;99287.3779296875;;;10.89;91.82
44531;BME280;30240;47.418;0.700;2023-04-23T06:35:14;99277.18505859375;;;10.95;91.54
44531;BME280;30240;47.418;0.700;2023-04-23T06:37:39;99272.59521484375;;;11.08;91.25
44531;BME280;30240;47.418;0.700;2023-04-23T06:40:04;99259.28955078125;;;11.02;90.99
44531;BME280;30240;47.418;0.700;2023-04-23T06:42:29;99257.36083984375;;;11.19;90.76
44531;BME280;30240;47.418;0.700;2023-04-23T06:44:54;99257.36083984375;;;11.19;90.76
44531;BME280;30240;47.418;0.700;2023-04-23T06:47:19;99254.16259765625;;;11.22;90.48
44531;BME280;30240;47.418;0.700;2023-04-23T06:49:43;99235.95581054688;;;11.23;90.27
44531;BME280;30240;47.418;0.700;2023-04-23T06:52:08;99234.87548828125;;;11.26;90.02
44531;BME280;30240;47.418;0.700;2023-04-23T06:54:33;99226.2939453125;;;11.4;90.01
44531;BME280;30240;47.418;0.700;2023-04-23T06:56:58;99226.2939453125;;;11.4;90.01
44531;BME280;30240;47.418;0.700;2023-04-23T06:59:24;99222.7783203125;;;11.37;89.71
44531;BME280;30240;47.418;0.700;2023-04-23T07:01:49;99215.56396484375;;;11.48;89.5
44531;BME280;30240;47.418;0.700;2023-04-23T07:04:13;99215.4541015625;;;11.45;89.39
44531;BME280;30240;47.418;0.700;2023-04-23T07:06:39;99208.70361328125;;;11.52;89.24
44531;BME280;30240;47.418;0.700;2023-04-23T07:09:03;99208.70361328125;;;11.52;89.24
44531;BME280;30240;47.418;0.700;2023-04-23T07:11:29;99200.09155273438;;;11.54;88.69
44531;BME280;30240;47.418;0.700;2023-04-23T07:13:54;99191.48559570312;;;11.61;88.38
44531;BME280;30240;47.418;0.700;2023-04-23T07:16:19;99192.10205078125;;;11.78;87.89
44531;BME280;30240;47.418;0.700;2023-04-23T07:18:43;99197.98583984375;;;11.94;87.59
44531;BME280;30240;47.418;0.700;2023-04-23T07:21:08;99186.48681640625;;;11.87;87.39
44531;BME280;30240;47.418;0.700;2023-04-23T07:23:33;99186.48681640625;;;11.87;87.39
44531;BME280;30240;47.418;0.700;2023-04-23T07:25:58;99179.91333007812;;;11.89;87.28
44531;BME280;30240;47.418;0.700;2023-04-23T07:28:24;99171.42944335938;;;12.01;86.92
44531;BME280;30240;47.418;0.700;2023-04-23T07:30:49;99157.01293945312;;;12.03;86.6
44531;BME280;30240;47.418;0.700;2023-04-23T07:33:14;99176.11083984375;;;11.85;86.03
44531;BME280;30240;47.418;0.700;2023-04-23T07:35:38;99176.11083984375;;;11.85;86.03
44531;BME280;30240;47.418;0.700;2023-04-23T07:38:04;99186.9384765625;;;12.1;85.94
44531;BME280;30240;47.418;0.700;2023-04-23T07:40:29;99193.51806640625;;;11.89;86.22
44531;BME280;30240;47.418;0.700;2023-04-23T07:42:54;99182.23266601562;;;11.86;86.07
44531;BME280;30240;47.418;0.700;2023-04-23T07:45:18;99172.8271484375;;;11.85;86.09
44531;BME280;30240;47.418;0.700;2023-04-23T07:47:44;99172.8271484375;;;11.85;86.09
44531;BME280;30240;47.418;0.700;2023-04-23T07:50:09;99159.7412109375;;;11.87;85.48
44531;BME280;30240;47.418;0.700;2023-04-23T07:52:34;99164.68505859375;;;12.07;85.73
44531;BME280;30240;47.418;0.700;2023-04-23T07:54:58;99165.5029296875;;;12.01;86.05
44531;BME280;30240;47.418;0.700;2023-04-23T07:57:24;99154.13818359375;;;11.96;86.01
44531;BME280;30240;47.418;0.700;2023-04-23T07:59:48;99154.13818359375;;;11.96;86.01
44531;BME280;30240;47.418;0.700;2023-04-23T08:02:13;99135.107421875;;;12.0;85.89
44531;BME280;30240;47.418;0.700;2023-04-23T08:04:39;99150.31127929688;;;11.92;85.94
44531;BME280;30240;47.418;0.700;2023-04-23T08:07:03;99142.73681640625;;;11.87;85.83
44531;BME280;30240;47.418;0.700;2023-04-23T08:09:29;99145.4345703125;;;11.93;85.64
44531;BME280;30240;47.418;0.700;2023-04-23T08:11:54;99145.4345703125;;;11.93;85.64
44531;BME280;30240;47.418;0.700;2023-04-23T08:14:18;99148.4375;;;11.96;85.49
44531;BME280;30240;47.418;0.700;2023-04-23T08:16:43;99154.96215820312;;;12.04;85.58
44531;BME280;30240;47.418;0.700;2023-04-23T08:19:09;99155.19409179688;;;12.09;85.38
44531;BME280;30240;47.418;0.700;2023-04-23T08:21:35;99153.15551757812;;;12.1;85.26
44531;BME280;30240;47.418;0.700;2023-04-23T08:24:04;99153.15551757812;;;12.1;85.26
44531;BME280;30240;47.418;0.700;2023-04-23T08:26:24;99159.67407226562;;;12.23;84.89
44531;BME280;30240;47.418;0.700;2023-04-23T08:28:48;99148.88916015625;;;12.24;85.0
44531;BME280;30240;47.418;0.700;2023-04-23T08:31:14;99152.783203125;;;12.4;84.63
44531;BME280;30240;47.418;0.700;2023-04-23T08:33:38;99144.03686523438;;;12.44;84.3
44531;BME280;30240;47.418;0.700;2023-04-23T08:36:04;99144.03686523438;;;12.44;84.3
44531;BME280;30240;47.418;0.700;2023-04-23T08:38:28;99134.28344726562;;;12.55;84.19
44531;BME280;30240;47.418;0.700;2023-04-23T08:40:56;99138.51318359375;;;12.73;83.5
44531;BME280;30240;47.418;0.700;2023-04-23T08:43:19;99090.12451171875;;;12.92;83.34
44531;BME280;30240;47.418;0.700;2023-04-23T08:45:46;99091.20483398438;;;12.59;83.93
44531;BME280;30240;47.418;0.700;2023-04-23T08:48:09;99091.20483398438;;;12.59;83.93
44531;BME280;30240;47.418;0.700;2023-04-23T08:50:36;99115.46630859375;;;12.53;84.42
44531;BME280;30240;47.418;0.700;2023-04-23T08:52:59;99113.97094726562;;;12.7;84.19
44531;BME280;30240;47.418;0.700;2023-04-23T08:55:24;99091.56494140625;;;12.99;83.88
44531;BME280;30240;47.418;0.700;2023-04-23T08:57:49;99088.42163085938;;;13.06;83.23
44531;BME280;30240;47.418;0.700;2023-04-23T09:00:15;99066.34521484375;;;12.87;82.95
44531;BME280;30240;47.418;0.700;2023-04-23T09:02:41;99066.34521484375;;;12.87;82.95
44531;BME280;30240;47.418;0.700;2023-04-23T09:05:04;99114.0869140625;;;12.76;83.39
44531;BME280;30240;47.418;0.700;2023-04-23T09:07:29;99106.82983398438;;;12.69;84.15
44531;BME280;30240;47.418;0.700;2023-04-23T09:09:54;99122.93090820312;;;12.77;83.51
44531;BME280;30240;47.418;0.700;2023-04-23T09:12:19;99140.25268554688;;;12.8;83.08
44531;BME280;30240;47.418;0.700;2023-04-23T09:14:44;99140.25268554688;;;12.8;83.08
44531;BME280;30240;47.418;0.700;2023-04-23T09:17:09;99134.716796875;;;12.87;82.57
44531;BME280;30240;47.418;0.700;2023-04-23T09:19:34;99128.92456054688;;;13.17;81.9
44531;BME280;30240;47.418;0.700;2023-04-23T09:21:59;99135.595703125;;;13.42;79.98
44531;BME280;30240;47.418;0.700;2023-04-23T09:24:24;99123.388671875;;;13.56;79.03
44531;BME280;30240;47.418;0.700;2023-04-23T09:26:50;99123.388671875;;;13.56;79.03
44531;BME280;30240;47.418;0.700;2023-04-23T09:29:15;99122.03979492188;;;13.87;78.44
44531;BME280;30240;47.418;0.700;2023-04-23T09:31:38;99095.68481445312;;;13.83;77.3
44531;BME280;30240;47.418;0.700;2023-04-23T09:34:05;99084.9365234375;;;13.66;76.64
44531;BME280;30240;47.418;0.700;2023-04-23T09:36:30;99102.69775390625;;;13.55;76.4
44531;BME280;30240;47.418;0.700;2023-04-23T09:38:54;99102.69775390625;;;13.55;76.4
44531;BME280;30240;47.418;0.700;2023-04-23T09:41:19;99104.88891601562;;;13.66;75.94
44531;BME280;30240;47.418;0.700;2023-04-23T09:43:46;99125.23193359375;;;13.59;76.53
44531;BME280;30240;47.418;0.700;2023-04-23T09:46:09;99125.75073242188;;;13.74;76.51
44531;BME280;30240;47.418;0.700;2023-04-23T09:48:40;99117.724609375;;;13.38;76.25
44531;BME280;30240;47.418;0.700;2023-04-23T09:51:00;99117.724609375;;;13.38;76.25
44531;BME280;30240;47.418;0.700;2023-04-23T09:53:25;99113.38500976562;;;13.48;75.59
44531;BME280;30240;47.418;0.700;2023-04-23T09:55:51;99131.2255859375;;;13.73;74.72
44531;BME280;30240;47.418;0.700;2023-04-23T09:58:14;99121.50268554688;;;13.94;74.94
44531;BME280;30240;47.418;0.700;2023-04-23T10:00:39;99133.82568359375;;;14.01;74.95
44531;BME280;30240;47.418;0.700;2023-04-23T10:03:05;99133.82568359375;;;14.01;74.95
44531;BME280;30240;47.418;0.700;2023-04-23T10:05:30;99120.90454101562;;;13.93;74.64
44531;BME280;30240;47.418;0.700;2023-04-23T10:07:54;99097.42431640625;;;13.9;72.99
44531;BME280;30240;47.418;0.700;2023-04-23T10:10:19;99112.32299804688;;;13.98;72.37
44531;BME280;30240;47.418;0.700;2023-04-23T10:12:45;99096.85668945312;;;14.17;71.88
44531;BME280;30240;47.418;0.700;2023-04-23T10:15:10;99096.85668945312;;;14.17;71.88
44531;BME280;30240;47.418;0.700;2023-04-23T10:17:34;99102.37426757812;;;14.59;70.91
44531;BME280;30240;47.418;0.700;2023-04-23T10:19:59;99123.62670898438;;;14.24;71.6
44531;BME280;30240;47.418;0.700;2023-04-23T10:22:25;99092.41943359375;;;13.76;72.49
44531;BME280;30240;47.418;0.700;2023-04-23T10:24:52;99127.82592773438;;;14.36;71.44
44531;BME280;30240;47.418;0.700;2023-04-23T10:27:14;99136.8408203125;;;14.5;71.96
44531;BME280;30240;47.418;0.700;2023-04-23T10:29:40;99136.8408203125;;;14.5;71.96
44531;BME280;30240;47.418;0.700;2023-04-23T10:32:05;99123.82202148438;;;14.77;71.76
44531;BME280;30240;47.418;0.700;2023-04-23T10:34:30;99113.42163085938;;;14.14;72.09
44531;BME280;30240;47.418;0.700;2023-04-23T10:36:54;99125.8544921875;;;14.26;71.76
44531;BME280;30240;47.418;0.700;2023-04-23T10:39:19;99152.94799804688;;;14.25;71.74
44531;BME280;30240;47.418;0.700;2023-04-23T10:41:44;99152.94799804688;;;14.25;71.74
44531;BME280;30240;47.418;0.700;2023-04-23T10:44:10;99154.74243164062;;;14.29;71.26
44531;BME280;30240;47.418;0.700;2023-04-23T10:46:33;99178.32641601562;;;14.59;70.19
44531;BME280;30240;47.418;0.700;2023-04-23T10:49:07;99171.54541015625;;;15.03;69.82
44531;BME280;30240;47.418;0.700;2023-04-23T10:51:31;99191.74194335938;;;14.59;70.36
44531;BME280;30240;47.418;0.700;2023-04-23T10:53:50;99191.74194335938;;;14.59;70.36
44531;BME280;30240;47.418;0.700;2023-04-23T10:56:14;99201.30615234375;;;15.37;69.68
44531;BME280;30240;47.418;0.700;2023-04-23T10:58:49;99201.67236328125;;;15.06;69.18
44531;BME280;30240;47.418;0.700;2023-04-23T11:01:04;99216.66259765625;;;15.33;69.28
44531;BME280;30240;47.418;0.700;2023-04-23T11:03:30;99212.40844726562;;;14.95;69.88
44531;BME280;30240;47.418;0.700;2023-04-23T11:05:53;99212.40844726562;;;14.95;69.88
44531;BME280;30240;47.418;0.700;2023-04-23T11:08:19;99224.29809570312;;;14.84;70.81
44531;BME280;30240;47.418;0.700;2023-04-23T11:10:50;99225.28686523438;;;14.57;70.65
44531;BME280;30240;47.418;0.700;2023-04-23T11:13:19;99252.61840820312;;;14.99;70.05
44531;BME280;30240;47.418;0.700;2023-04-23T11:15:34;99250.45166015625;;;14.89;70.01
44531;BME280;30240;47.418;0.700;2023-04-23T11:18:00;99250.45166015625;;;14.89;70.01
44531;BME280;30240;47.418;0.700;2023-04-23T11:20:23;99240.17333984375;;;15.5;69.46
44531;BME280;30240;47.418;0.700;2023-04-23T11:22:49;99230.50537109375;;;15.6;69.06
44531;BME280;30240;47.418;0.700;2023-04-23T11:25:18;99212.92114257812;;;15.65;69.0
44531;BME280;30240;47.418;0.700;2023-04-23T11:27:40;99194.970703125;;;15.77;68.05
44531;BME280;30240;47.418;0.700;2023-04-23T11:30:04;99194.970703125;;;15.77;68.05
44531;BME280;30240;47.418;0.700;2023-04-23T11:32:29;99215.0634765625;;;15.49;69.12